createdAt,value
2017-09-18T00:01:04.548Z,30.80
2017-09-18T00:03:30.763Z,26.03
2017-09-18T00:05:56.973Z,29.43
2017-09-18T00:08:23.262Z,22.17
2017-09-18T00:10:49.486Z,21.53
2017-09-18T00:13:15.699Z,15.90
2017-09-18T00:15:41.967Z,28.13
2017-09-18T00:18:08.180Z,28.90
2017-09-18T00:20:34.388Z,31.57
2017-09-18T00:23:00.675Z,34.50
2017-09-18T00:25:26.888Z,22.60
2017-09-18T00:27:53.116Z,26.10
2017-09-18T00:30:19.374Z,39.17
2017-09-18T00:32:45.571Z,21.13
2017-09-18T00:35:11.849Z,18.40
2017-09-18T00:37:38.117Z,25.43
2017-09-18T00:40:04.328Z,24.03
2017-09-18T00:42:30.584Z,27.67
2017-09-18T00:44:56.872Z,24.63
2017-09-18T00:47:23.103Z,38.30
2017-09-18T00:49:49.330Z,35.10
2017-09-18T00:52:15.609Z,21.60
2017-09-18T00:54:41.840Z,34.10
2017-09-18T00:57:08.051Z,25.63
2017-09-18T00:59:34.311Z,39.53
2017-09-18T01:02:00.510Z,36.53
2017-09-18T01:04:26.719Z,36.63
2017-09-18T01:06:52.999Z,30.23
2017-09-18T01:09:19.235Z,22.03
2017-09-18T01:11:45.445Z,27.17
2017-09-18T01:14:11.718Z,33.87
2017-09-18T01:16:37.966Z,46.33
2017-09-18T01:19:04.208Z,29.33
2017-09-18T01:21:30.500Z,22.33
2017-09-18T01:23:56.726Z,24.37
2017-09-18T01:26:22.950Z,21.90
2017-09-18T01:28:49.241Z,19.00
2017-09-18T01:31:15.503Z,28.50
2017-09-18T01:33:41.741Z,22.53
2017-09-18T01:36:08.014Z,26.60
2017-09-18T01:38:34.251Z,36.33
2017-09-18T01:41:00.475Z,31.60
2017-09-18T01:43:26.882Z,26.13
2017-09-18T01:45:53.115Z,31.83
2017-09-18T01:48:19.324Z,27.37
2017-09-18T01:50:45.606Z,29.07
2017-09-18T01:53:11.842Z,27.17
2017-09-18T01:55:38.069Z,25.57
2017-09-18T01:58:04.359Z,26.70
2017-09-18T02:00:30.589Z,34.50
2017-09-18T02:02:56.814Z,34.20
2017-09-18T02:05:23.105Z,38.73
2017-09-18T02:07:49.348Z,23.33
2017-09-18T02:10:15.588Z,38.27
2017-09-18T02:12:41.868Z,25.17
2017-09-18T02:15:08.100Z,27.73
2017-09-18T02:17:34.344Z,24.63
2017-09-18T02:20:00.636Z,33.50
2017-09-18T02:22:26.876Z,26.87
2017-09-18T02:24:53.110Z,23.90
2017-09-18T02:27:19.386Z,25.70
2017-09-18T02:29:45.616Z,34.27
2017-09-18T02:32:11.832Z,20.97
2017-09-18T02:34:38.114Z,22.53
2017-09-18T02:37:04.346Z,25.17
2017-09-18T02:39:30.581Z,28.57
2017-09-18T02:41:56.858Z,25.23
2017-09-18T02:44:23.078Z,20.63
2017-09-18T02:46:49.292Z,26.73
2017-09-18T02:49:15.842Z,13.87
2017-09-18T02:51:42.084Z,24.10
2017-09-18T02:54:08.326Z,25.57
2017-09-18T02:56:34.606Z,39.10
2017-09-18T02:59:00.824Z,20.80
2017-09-18T03:01:27.059Z,37.70
2017-09-18T03:03:53.277Z,30.60
2017-09-18T03:06:19.513Z,18.80
2017-09-18T03:08:45.748Z,28.77
2017-09-18T03:11:11.973Z,19.13
2017-09-18T03:13:38.201Z,23.90
2017-09-18T03:16:04.433Z,17.20
2017-09-18T03:18:30.674Z,16.10
2017-09-18T03:20:56.931Z,18.80
2017-09-18T03:23:23.211Z,28.30
2017-09-18T03:25:49.534Z,33.13
2017-09-18T03:28:15.761Z,31.40
2017-09-18T03:30:42.271Z,17.10
2017-09-18T03:33:08.514Z,27.93
2017-09-18T03:35:34.752Z,17.03
2017-09-18T03:38:01.037Z,17.87
2017-09-18T03:40:27.255Z,21.33
2017-09-18T03:42:53.466Z,34.40
2017-09-18T03:45:19.741Z,24.00
2017-09-18T03:47:45.961Z,30.63
2017-09-18T03:50:12.189Z,23.27
2017-09-18T03:52:38.471Z,25.63
2017-09-18T03:55:04.702Z,23.30
2017-09-18T03:57:30.920Z,27.10
2017-09-18T03:59:57.222Z,48.80
2017-09-18T04:02:23.454Z,31.60
2017-09-18T04:04:49.695Z,38.00
2017-09-18T04:07:15.980Z,26.53
2017-09-18T04:09:42.200Z,30.37
2017-09-18T04:12:08.429Z,32.27
2017-09-18T04:14:34.713Z,27.50
2017-09-18T04:17:00.943Z,40.90
2017-09-18T04:19:27.181Z,33.57
2017-09-18T04:21:53.456Z,36.33
2017-09-18T04:24:19.684Z,37.27
2017-09-18T04:26:45.912Z,41.13
2017-09-18T04:29:12.204Z,25.33
2017-09-18T04:31:38.424Z,25.93
2017-09-18T04:34:04.647Z,24.53
2017-09-18T04:36:30.929Z,77.93
2017-09-18T04:38:57.142Z,51.07
2017-09-18T04:41:23.380Z,29.77
2017-09-18T04:43:49.669Z,27.13
2017-09-18T04:46:15.888Z,26.53
2017-09-18T04:48:42.104Z,36.03
2017-09-18T04:51:08.388Z,32.83
2017-09-18T04:53:34.608Z,44.57
2017-09-18T04:56:00.867Z,26.33
2017-09-18T04:58:27.170Z,20.70
2017-09-18T05:00:53.389Z,29.73
2017-09-18T05:03:19.652Z,20.83
2017-09-18T05:05:45.958Z,25.60
2017-09-18T05:08:12.319Z,20.53
2017-09-18T05:10:38.546Z,19.00
2017-09-18T05:13:04.826Z,21.00
2017-09-18T05:15:31.055Z,17.20
2017-09-18T05:17:57.274Z,21.63
2017-09-18T05:20:23.549Z,16.17
2017-09-18T05:22:49.901Z,42.50
2017-09-18T05:25:16.129Z,45.17
2017-09-18T05:27:42.411Z,27.10
2017-09-18T05:30:08.621Z,41.27
2017-09-18T05:32:34.859Z,39.40
2017-09-18T05:35:01.102Z,23.43
2017-09-18T05:37:27.335Z,24.40
2017-09-18T05:39:53.558Z,43.07
2017-09-18T05:42:19.858Z,35.43
2017-09-18T05:44:46.139Z,21.13
2017-09-18T05:47:12.372Z,23.70
2017-09-18T05:49:38.667Z,36.47
2017-09-18T05:52:04.897Z,31.00
2017-09-18T05:54:31.128Z,50.53
2017-09-18T05:56:57.420Z,36.53
2017-09-18T05:59:23.648Z,42.37
2017-09-18T06:01:49.871Z,28.87
2017-09-18T06:04:16.156Z,36.73
2017-09-18T06:06:42.373Z,26.10
2017-09-18T06:09:08.592Z,18.93
2017-09-18T06:11:34.895Z,26.33
2017-09-18T06:14:01.226Z,44.33
2017-09-18T06:16:27.456Z,17.47
2017-09-18T06:18:53.741Z,31.37
2017-09-18T06:21:19.964Z,31.37
2017-09-18T06:23:46.206Z,17.40
2017-09-18T06:26:12.499Z,17.63
2017-09-18T06:28:38.719Z,12.27
2017-09-18T06:31:04.955Z,23.93
2017-09-18T06:33:31.309Z,8.40
2017-09-18T06:35:57.539Z,27.03
2017-09-18T06:38:23.775Z,23.47
2017-09-18T06:40:50.059Z,5.73
2017-09-18T06:43:16.288Z,8.70
2017-09-18T06:45:42.515Z,10.80
2017-09-18T06:48:08.785Z,6.40
2017-09-18T06:50:35.130Z,7.33
2017-09-18T06:53:01.353Z,9.97
2017-09-18T06:55:27.632Z,5.47
2017-09-18T06:57:53.846Z,8.93
2017-09-18T07:00:20.049Z,6.90
2017-09-18T07:02:46.324Z,8.57
2017-09-18T07:05:12.544Z,3.27
2017-09-18T07:07:38.774Z,5.23
2017-09-18T07:10:05.042Z,6.30
2017-09-18T07:12:31.275Z,9.17
2017-09-18T07:14:57.509Z,4.70
2017-09-18T07:17:23.787Z,3.20
2017-09-18T07:19:50.020Z,6.10
2017-09-18T07:22:16.253Z,10.23
2017-09-18T07:24:42.518Z,2.67
2017-09-18T07:27:08.743Z,3.37
2017-09-18T07:29:35.012Z,4.77
2017-09-18T07:32:01.424Z,4.87
2017-09-18T07:34:27.644Z,2.63
2017-09-18T07:36:53.870Z,3.90
2017-09-18T07:39:20.147Z,7.00
2017-09-18T07:41:46.366Z,6.80
2017-09-18T07:44:12.580Z,7.30
2017-09-18T07:46:38.853Z,9.43
2017-09-18T07:49:05.064Z,3.90
2017-09-18T07:51:31.294Z,1.93
2017-09-18T07:53:57.586Z,7.00
2017-09-18T07:56:23.817Z,2.95
2017-09-18T07:58:50.045Z,3.77
2017-09-18T08:01:16.331Z,4.90
2017-09-18T08:03:42.539Z,7.72
2017-09-18T08:06:08.909Z,4.03
2017-09-18T08:08:35.182Z,8.47
2017-09-18T08:11:01.409Z,5.20
2017-09-18T08:13:27.622Z,3.40
2017-09-18T08:15:53.929Z,5.27
2017-09-18T08:18:20.153Z,6.33
2017-09-18T08:20:46.366Z,3.17
2017-09-18T08:23:12.638Z,6.50
2017-09-18T08:25:38.854Z,5.50
2017-09-18T08:28:05.103Z,4.93
2017-09-18T08:30:31.530Z,6.47
2017-09-18T08:32:57.760Z,3.40
2017-09-18T08:35:23.992Z,8.02
2017-09-18T08:37:50.277Z,9.20
2017-09-18T08:40:16.503Z,5.20
2017-09-18T08:42:42.736Z,6.12
2017-09-18T08:45:09.068Z,7.97
2017-09-18T08:47:35.289Z,7.00
2017-09-18T08:50:01.516Z,5.47
2017-09-18T08:52:27.796Z,3.85
2017-09-18T08:54:54.021Z,9.15
2017-09-18T08:57:20.242Z,10.70
2017-09-18T08:59:46.520Z,5.80
2017-09-18T09:02:12.742Z,8.50
2017-09-18T09:04:38.957Z,3.53
2017-09-18T09:07:05.253Z,2.43
2017-09-18T09:09:31.495Z,8.73
2017-09-18T09:11:57.844Z,3.12
2017-09-18T09:14:24.104Z,7.22
2017-09-18T09:16:50.317Z,5.32
2017-09-18T09:19:16.713Z,9.43
2017-09-18T09:21:42.989Z,3.27
2017-09-18T09:24:09.197Z,16.55
2017-09-18T09:26:35.413Z,6.47
2017-09-18T09:29:01.677Z,8.43
2017-09-18T09:31:27.897Z,6.37
2017-09-18T09:33:54.114Z,5.00
2017-09-18T09:36:20.388Z,9.73
2017-09-18T09:38:46.616Z,8.15
2017-09-18T09:41:12.893Z,6.12
2017-09-18T09:43:39.161Z,2.92
2017-09-18T09:46:05.392Z,3.60
2017-09-18T09:48:31.619Z,9.38
2017-09-18T09:50:57.904Z,5.10
2017-09-18T09:53:24.122Z,6.85
2017-09-18T09:55:50.350Z,11.02
2017-09-18T09:58:16.616Z,6.12
2017-09-18T10:00:42.828Z,15.18
2017-09-18T10:03:09.055Z,9.75
2017-09-18T10:05:35.460Z,5.15
2017-09-18T10:08:01.687Z,6.68
2017-09-18T10:10:27.908Z,8.10
2017-09-18T10:12:54.195Z,5.07
2017-09-18T10:15:20.440Z,5.45
2017-09-18T10:17:46.653Z,6.07
2017-09-18T10:20:12.962Z,16.30
2017-09-18T10:22:39.178Z,8.57
2017-09-18T10:25:05.404Z,5.20
2017-09-18T10:27:31.674Z,6.30
2017-09-18T10:29:57.911Z,2.97
2017-09-18T10:32:24.130Z,2.87
2017-09-18T10:48:37.608Z,2.67
2017-09-18T10:51:03.819Z,3.95
2017-09-18T10:53:30.038Z,8.40
2017-09-18T10:55:56.308Z,3.22
2017-09-18T10:58:22.534Z,4.72
2017-09-18T11:00:48.767Z,5.10
2017-09-18T11:03:15.054Z,5.47
2017-09-18T11:05:41.278Z,3.78
2017-09-18T11:08:07.616Z,5.93
2017-09-18T11:10:33.925Z,2.65
2017-09-18T11:13:00.139Z,4.50
2017-09-18T11:15:26.379Z,5.72
2017-09-18T11:17:52.721Z,5.45
2017-09-18T11:20:18.929Z,3.35
2017-09-18T11:22:45.192Z,3.65
2017-09-18T11:25:11.474Z,4.87
2017-09-18T11:27:37.697Z,5.03
2017-09-18T11:30:03.917Z,2.40
2017-09-18T11:32:30.198Z,6.00
2017-09-18T11:34:56.418Z,5.85
2017-09-18T11:37:22.630Z,2.35
2017-09-18T11:39:48.890Z,5.22
2017-09-18T11:42:15.106Z,3.92
2017-09-18T11:47:12.663Z,4.30
2017-09-18T11:49:39.015Z,3.20
2017-09-18T11:52:05.226Z,3.80
2017-09-18T11:54:31.473Z,6.20
2017-09-18T11:56:57.686Z,7.57
2017-09-18T11:59:23.911Z,4.95
2017-09-18T12:01:50.190Z,3.60
2017-09-18T12:04:16.397Z,5.12
2017-09-18T12:06:42.600Z,7.18
2017-09-18T12:09:08.864Z,7.50
2017-09-18T12:11:35.083Z,7.18
2017-09-18T12:14:01.323Z,7.55
2017-09-18T12:16:27.616Z,4.55
2017-09-18T12:18:53.907Z,6.30
2017-09-18T12:21:20.133Z,8.73
2017-09-18T12:23:46.422Z,7.60
2017-09-18T12:26:12.658Z,2.55
2017-09-18T12:28:38.881Z,3.58
2017-09-18T12:31:05.163Z,4.78
2017-09-18T12:33:31.428Z,8.88
2017-09-18T12:35:57.652Z,7.57
2017-09-18T12:38:23.945Z,4.40
2017-09-18T12:40:50.174Z,9.70
2017-09-18T12:56:40.648Z,10.32
2017-09-18T12:59:06.875Z,4.40
2017-09-18T13:01:33.100Z,16.15
2017-09-18T13:03:59.379Z,6.18
2017-09-18T13:06:25.604Z,3.47
2017-09-18T13:08:51.864Z,3.67
2017-09-18T13:11:18.149Z,3.92
2017-09-18T13:13:44.361Z,24.05
2017-09-18T13:16:10.594Z,14.57
2017-09-18T13:18:36.854Z,5.68
2017-09-18T13:21:03.065Z,5.25
2017-09-18T13:23:29.277Z,10.30
2017-09-18T13:25:55.594Z,6.00
2017-09-18T13:28:21.812Z,10.10
2017-09-18T13:30:48.041Z,12.32
2017-09-18T13:33:14.316Z,6.43
2017-09-18T13:35:40.529Z,15.33
2017-09-18T13:38:06.744Z,10.53
2017-09-18T13:40:33.009Z,6.70
2017-09-18T13:42:59.217Z,7.17
2017-09-18T13:45:25.401Z,7.60
2017-09-18T13:47:51.701Z,10.00
2017-09-18T13:50:17.916Z,9.80
2017-09-18T13:52:44.143Z,11.97
2017-09-18T13:55:10.418Z,15.27
2017-09-18T13:57:36.839Z,7.80
2017-09-18T14:00:03.058Z,8.37
2017-09-18T14:02:29.352Z,11.70
2017-09-18T14:04:55.573Z,11.43
2017-09-18T14:07:21.784Z,9.53
2017-09-18T14:09:48.076Z,16.57
2017-09-18T14:12:14.304Z,9.10
2017-09-18T14:14:40.517Z,8.83
2017-09-18T14:17:06.789Z,6.00
2017-09-18T14:19:33.012Z,6.00
2017-09-18T14:21:59.220Z,29.73
2017-09-18T14:24:25.513Z,26.17
2017-09-18T14:26:51.751Z,15.73
2017-09-18T14:29:17.981Z,13.63
2017-09-18T14:31:44.260Z,16.37
2017-09-18T14:34:10.493Z,10.23
2017-09-18T14:36:36.763Z,14.97
2017-09-18T14:39:03.035Z,9.37
2017-09-18T14:41:29.363Z,13.30
2017-09-18T14:43:55.598Z,9.93
2017-09-18T14:46:21.868Z,15.33
2017-09-18T14:48:48.078Z,17.60
2017-09-18T14:51:14.298Z,16.60
2017-09-18T14:53:40.563Z,7.53
2017-09-18T14:56:06.776Z,19.57
2017-09-18T14:58:32.985Z,12.73
2017-09-18T15:00:59.232Z,15.63
2017-09-18T15:03:25.438Z,10.33
2017-09-18T15:05:51.669Z,10.80
2017-09-18T15:08:17.923Z,9.57
2017-09-18T15:10:44.141Z,15.20
2017-09-18T15:13:10.362Z,7.90
2017-09-18T15:15:36.569Z,27.73
2017-09-18T15:18:02.777Z,19.57
2017-09-18T15:20:29.067Z,15.47
2017-09-18T15:22:55.278Z,13.70
2017-09-18T15:25:21.498Z,13.37
2017-09-18T15:27:47.755Z,10.70
2017-09-18T15:30:13.984Z,14.97
2017-09-18T15:32:40.196Z,14.00
2017-09-18T15:35:06.486Z,19.33
2017-09-18T15:37:32.710Z,15.47
2017-09-18T15:39:59.053Z,9.70
2017-09-18T15:42:25.336Z,10.10
2017-09-18T15:47:31.643Z,19.73
2017-09-18T15:49:57.866Z,18.23
2017-09-18T15:52:24.071Z,18.33
2017-09-18T15:54:50.544Z,20.13
2017-09-18T15:57:16.760Z,44.57
2017-09-18T15:59:42.980Z,41.90
2017-09-18T16:02:09.247Z,46.17
2017-09-18T16:04:35.463Z,49.53
2017-09-18T16:07:01.674Z,35.73
2017-09-18T16:09:27.958Z,22.77
2017-09-18T16:11:54.186Z,20.50
2017-09-18T16:14:20.409Z,21.67
2017-09-18T16:16:46.717Z,35.13
2017-09-18T16:19:12.951Z,27.03
2017-09-18T16:21:39.197Z,24.67
2017-09-18T16:24:05.477Z,29.80
2017-09-18T16:26:31.760Z,27.80
2017-09-18T16:28:57.985Z,25.60
2017-09-18T16:31:24.247Z,34.20
2017-09-18T16:33:50.482Z,85.40
2017-09-18T16:36:16.693Z,91.40
2017-09-18T16:38:42.963Z,80.43
2017-09-18T16:41:09.198Z,66.33
2017-09-18T16:43:35.427Z,72.23
2017-09-18T16:46:01.702Z,46.50
2017-09-18T16:48:27.921Z,70.53
2017-09-18T16:50:54.149Z,76.90
2017-09-18T16:53:20.417Z,75.23
2017-09-18T16:55:46.746Z,234.50
2017-09-18T16:58:12.979Z,48.17
2017-09-18T17:00:39.292Z,38.20
2017-09-18T17:03:05.512Z,38.83
2017-09-18T17:05:31.737Z,39.90
2017-09-18T17:07:58.089Z,66.93
2017-09-18T17:10:24.302Z,43.43
2017-09-18T17:12:50.497Z,40.23
2017-09-18T17:15:16.765Z,60.27
2017-09-18T17:17:42.995Z,39.77
2017-09-18T17:20:09.228Z,33.47
2017-09-18T17:22:35.488Z,25.20
2017-09-18T17:25:01.706Z,31.97
2017-09-18T17:27:27.921Z,12.63
2017-09-18T17:29:54.191Z,10.80
2017-09-18T17:32:20.419Z,10.63
2017-09-18T17:34:46.639Z,35.67
2017-09-18T17:37:12.909Z,30.70
2017-09-18T17:39:39.146Z,26.67
2017-09-18T17:42:05.489Z,21.80
2017-09-18T17:44:31.772Z,36.43
2017-09-18T17:46:57.979Z,25.30
2017-09-18T17:49:24.202Z,19.00
2017-09-18T17:51:51.521Z,29.00
2017-09-18T17:54:17.896Z,30.77
2017-09-18T17:56:44.156Z,30.43
2017-09-18T17:59:10.413Z,18.73
2017-09-18T18:01:36.594Z,28.40
2017-09-18T18:04:03.058Z,28.53
2017-09-18T18:06:29.445Z,25.10
2017-09-18T18:08:55.658Z,32.23
2017-09-18T18:11:21.853Z,28.93
2017-09-18T18:13:48.175Z,17.37
2017-09-18T18:16:14.768Z,20.23
2017-09-18T18:18:41.000Z,32.43
2017-09-18T18:21:07.437Z,17.70
2017-09-18T18:23:33.819Z,21.60
2017-09-18T18:26:00.237Z,11.97
2017-09-18T18:28:26.678Z,18.17
2017-09-18T18:30:53.022Z,24.03
2017-09-18T18:33:19.224Z,36.33
2017-09-18T18:35:45.836Z,20.67
2017-09-18T18:38:12.324Z,24.37
2017-09-18T18:40:38.737Z,20.47
2017-09-18T18:43:05.308Z,15.50
2017-09-18T18:45:31.726Z,16.43
2017-09-18T18:47:58.142Z,21.10
2017-09-18T18:50:24.623Z,19.73
2017-09-18T18:52:51.064Z,24.50
2017-09-18T18:55:17.702Z,23.67
2017-09-18T18:57:44.340Z,22.23
2017-09-18T19:00:10.957Z,17.53
2017-09-18T19:02:37.201Z,16.57
2017-09-18T19:05:03.635Z,18.00
2017-09-18T19:07:30.257Z,24.60
2017-09-18T19:09:56.668Z,59.57
2017-09-18T19:12:22.943Z,34.30
2017-09-18T19:14:49.131Z,21.27
2017-09-18T19:17:15.325Z,12.20
2017-09-18T19:19:41.822Z,25.97
2017-09-18T19:22:08.054Z,28.13
2017-09-18T19:24:34.286Z,33.83
2017-09-18T19:27:00.711Z,15.43
2017-09-18T19:29:27.145Z,14.27
2017-09-18T19:31:53.430Z,17.03
2017-09-18T19:34:19.842Z,23.47
2017-09-18T19:36:46.181Z,26.13
2017-09-18T19:39:12.464Z,20.50
2017-09-18T19:41:38.892Z,19.63
2017-09-18T19:44:05.132Z,32.67
2017-09-18T19:46:31.360Z,15.93
2017-09-18T19:48:57.844Z,24.23
2017-09-18T19:51:24.436Z,21.80
2017-09-18T19:53:50.900Z,8.33
2017-09-18T19:56:17.472Z,13.70
2017-09-18T19:58:43.888Z,12.33
2017-09-18T20:01:10.151Z,22.20
2017-09-18T20:03:36.399Z,21.63
2017-09-18T20:06:02.820Z,14.27
2017-09-18T20:08:29.469Z,20.53
2017-09-18T20:10:55.889Z,15.23
2017-09-18T20:13:22.089Z,19.10
2017-09-18T20:15:48.354Z,12.90
2017-09-18T20:18:14.955Z,20.73
2017-09-18T20:20:41.214Z,25.70
2017-09-18T20:23:07.638Z,17.97
2017-09-18T20:25:34.294Z,28.47
2017-09-18T20:28:00.572Z,8.33
2017-09-18T20:30:26.765Z,23.77
2017-09-18T20:32:53.008Z,21.20
2017-09-18T20:35:19.352Z,23.03
2017-09-18T20:37:45.562Z,15.83
2017-09-18T20:40:11.872Z,27.13
2017-09-18T20:42:38.100Z,11.30
2017-09-18T20:45:04.586Z,13.27
2017-09-18T20:47:30.960Z,18.30
2017-09-18T20:49:57.349Z,22.73
2017-09-18T20:52:23.542Z,17.47
2017-09-18T20:54:50.057Z,14.80
2017-09-18T20:57:16.550Z,13.87
2017-09-18T20:59:42.922Z,15.47
2017-09-18T21:02:09.356Z,18.93
2017-09-18T21:04:35.593Z,24.27
2017-09-18T21:07:02.017Z,14.80
2017-09-18T21:09:28.511Z,10.67
2017-09-18T21:11:54.867Z,16.47
2017-09-18T21:14:21.267Z,22.70
2017-09-18T21:16:47.548Z,15.10
2017-09-18T21:19:13.776Z,22.73
2017-09-18T21:21:40.270Z,16.13
2017-09-18T21:24:06.711Z,18.97
2017-09-18T21:26:32.924Z,18.87
2017-09-18T21:28:59.117Z,14.00
2017-09-18T21:31:25.491Z,12.53
2017-09-18T21:33:51.911Z,11.30
2017-09-18T21:36:18.187Z,30.93
2017-09-18T21:38:44.570Z,21.47
2017-09-18T21:41:10.907Z,17.37
2017-09-18T21:43:37.294Z,10.70
2017-09-18T21:46:03.537Z,11.47
2017-09-18T21:48:29.947Z,26.43
2017-09-18T21:50:56.183Z,14.13
2017-09-18T21:53:22.765Z,20.63
2017-09-18T21:55:49.213Z,16.63
2017-09-18T21:58:15.628Z,12.83
2017-09-18T22:00:41.852Z,19.40
2017-09-18T22:03:08.012Z,15.50
2017-09-18T22:05:34.157Z,9.33
2017-09-18T22:08:00.363Z,15.27
2017-09-18T22:10:26.507Z,19.63
2017-09-18T22:12:52.682Z,13.27
2017-09-18T22:15:19.010Z,19.20
2017-09-18T22:17:45.178Z,28.20
2017-09-18T22:20:11.324Z,15.67
2017-09-18T22:22:37.678Z,14.10
2017-09-18T22:25:03.829Z,19.77
2017-09-18T22:27:29.978Z,24.30
2017-09-18T22:29:56.205Z,18.80
2017-09-18T22:32:22.364Z,14.10
2017-09-18T22:34:48.527Z,14.83
2017-09-18T22:37:14.894Z,20.63
2017-09-18T22:39:41.126Z,23.27
2017-09-18T22:42:07.290Z,19.70
2017-09-18T22:44:33.505Z,20.17
2017-09-18T22:46:59.852Z,14.30
2017-09-18T22:49:26.483Z,24.63
2017-09-18T22:51:52.780Z,16.63
2017-09-18T22:54:19.196Z,12.87
2017-09-18T22:56:45.643Z,24.77
2017-09-18T22:59:12.151Z,19.00
2017-09-18T23:01:38.436Z,12.90
2017-09-18T23:04:04.588Z,12.33
2017-09-18T23:06:30.928Z,10.40
2017-09-18T23:08:57.327Z,13.90
2017-09-18T23:11:23.767Z,17.80
2017-09-18T23:13:50.381Z,15.33
2017-09-18T23:16:16.803Z,26.57
2017-09-18T23:18:43.120Z,18.00
2017-09-18T23:21:09.503Z,13.30
2017-09-18T23:23:35.726Z,19.30
2017-09-18T23:26:02.219Z,9.93
2017-09-18T23:28:29.003Z,23.43
2017-09-18T23:30:55.630Z,24.73
2017-09-18T23:33:22.078Z,17.73
2017-09-18T23:35:48.500Z,16.90
2017-09-18T23:38:14.948Z,21.60
2017-09-18T23:40:41.169Z,16.80
2017-09-18T23:43:07.588Z,16.77
2017-09-18T23:45:33.820Z,11.90
2017-09-18T23:48:00.011Z,22.57
2017-09-18T23:50:26.272Z,16.87
2017-09-18T23:52:52.461Z,17.53
2017-09-18T23:55:18.747Z,16.20
2017-09-18T23:57:45.163Z,18.33
